Time;durP1;ratioP1;P1;durP2;ratioP2;P2;SDS_P1;SDS_P2;PMS_P1;PMS_P2;Temp;Humidity;BMP_temperature;BMP_pressure;BME280_temperature;BME280_humidity;BME280_pressure;Samples;Min_cycle;Max_cycle;Signal;HPM_P1;HPM_P2
2022/11/22 00:02:08;;;;;;;26.98;11.60;;;;;;;5.15;100.00;98982.13;5102867;28;20051;-67
2022/11/22 00:04:33;;;;;;;26.52;11.20;;;;;;;5.17;100.00;98993.50;5103024;28;20020;-68
2022/11/22 00:06:59;;;;;;;28.20;11.88;;;;;;;5.19;100.00;98985.63;5103921;28;20024;-68
2022/11/22 00:09:24;;;;;;;28.05;12.10;;;;;;;5.17;100.00;98977.78;5101793;28;20035;-68
2022/11/22 00:11:50;;;;;;;27.85;12.10;;;;;;;5.21;100.00;98974.28;5104990;28;20111;-68
2022/11/22 00:14:15;;;;;;;27.88;12.43;;;;;;;5.20;100.00;98975.13;5101786;28;20393;-68
2022/11/22 00:16:40;;;;;;;28.05;12.65;;;;;;;5.18;100.00;98974.25;5103887;28;20036;-68
2022/11/22 00:19:06;;;;;;;29.60;12.27;;;;;;;5.14;100.00;98977.78;5102798;28;20051;-68
2022/11/22 00:21:31;;;;;;;26.80;12.15;;;;;;;5.12;100.00;98976.91;5102648;28;20379;-68
2022/11/22 00:23:56;;;;;;;26.77;11.73;;;;;;;5.13;100.00;98973.41;5104101;28;20027;-68
2022/11/22 00:26:23;;;;;;;29.02;12.15;;;;;;;5.15;100.00;98970.78;5101201;28;20383;-72
2022/11/22 00:28:48;;;;;;;28.05;12.60;;;;;;;5.17;100.00;98974.25;5097467;28;20455;-75
2022/11/22 00:31:13;;;;;;;29.30;12.27;;;;;;;5.17;100.00;98976.88;5104068;28;20027;-70
2022/11/22 00:33:39;;;;;;;26.98;11.70;;;;;;;5.11;100.00;98983.03;5102251;28;20035;-72
2022/11/22 00:36:04;;;;;;;26.02;11.15;;;;;;;5.09;100.00;98979.53;5102870;28;20024;-76
2022/11/22 00:38:30;;;;;;;26.50;11.65;;;;;;;5.07;100.00;98982.16;5103489;28;20030;-77
2022/11/22 00:40:55;;;;;;;25.83;11.63;;;;;;;5.06;100.00;98980.41;5101416;28;20052;-78
2022/11/22 00:43:20;;;;;;;26.23;11.45;;;;;;;5.03;100.00;98984.81;5104726;28;20028;-72
2022/11/22 00:45:46;;;;;;;25.92;11.40;;;;;;;4.98;100.00;98982.19;5101271;28;20028;-78
2022/11/22 00:48:11;;;;;;;24.48;11.20;;;;;;;4.94;100.00;98972.59;5103512;28;20364;-75
2022/11/22 00:50:37;;;;;;;26.25;11.40;;;;;;;4.85;100.00;98970.88;5102893;28;20598;-72
2022/11/22 00:53:02;;;;;;;26.92;11.23;;;;;;;4.77;100.00;98971.78;5102253;28;20028;-75
2022/11/22 00:55:28;;;;;;;27.33;10.50;;;;;;;4.73;100.00;98983.97;5103577;28;20046;-70
2022/11/22 00:57:53;;;;;;;27.27;10.75;;;;;;;4.68;100.00;98983.13;5100808;28;20467;-72
2022/11/22 01:00:19;;;;;;;26.60;10.40;;;;;;;4.67;100.00;98971.78;5105538;28;20498;-69
2022/11/22 01:02:44;;;;;;;26.17;10.13;;;;;;;4.63;100.00;98979.63;5105446;28;20029;-70
2022/11/22 01:05:09;;;;;;;25.67;10.48;;;;;;;4.59;100.00;98977.88;5106898;28;20502;-67
2022/11/22 01:07:35;;;;;;;23.60;9.70;;;;;;;4.58;100.00;98971.78;5106451;28;20509;-67
2022/11/22 01:10:00;;;;;;;25.98;9.85;;;;;;;4.57;100.00;98977.03;5104582;28;20111;-67
2022/11/22 01:12:25;;;;;;;26.73;9.93;;;;;;;4.56;100.00;98977.91;5107714;28;20375;-67
2022/11/22 01:14:51;;;;;;;24.58;9.90;;;;;;;4.49;100.00;98979.66;5104551;28;21112;-67
2022/11/22 01:17:16;;;;;;;24.88;9.63;;;;;;;4.44;100.00;98979.66;5108095;28;20063;-68
2022/11/22 01:19:42;;;;;;;26.40;9.52;;;;;;;4.39;100.00;98991.88;5105260;28;20023;-68
2022/11/22 01:22:07;;;;;;;26.80;9.52;;;;;;;4.41;100.00;98984.88;5106298;28;20032;-67
2022/11/22 01:24:32;;;;;;;29.13;9.55;;;;;;;4.48;100.00;98991.84;5106810;28;20019;-67
2022/11/22 01:26:58;;;;;;;25.60;9.00;;;;;;;4.44;100.00;98998.00;5104885;28;20039;-67
2022/11/22 01:29:23;;;;;;;27.85;9.57;;;;;;;4.42;100.00;98986.63;5107678;27;20085;-67
2022/11/22 01:31:48;;;;;;;26.00;8.57;;;;;;;4.38;100.00;98992.72;5100250;28;20032;-68
2022/11/22 01:34:14;;;;;;;27.13;8.70;;;;;;;4.35;100.00;98991.00;5106893;28;20038;-67
2022/11/22 01:36:39;;;;;;;27.48;8.68;;;;;;;4.39;100.00;98991.88;5105557;28;20031;-70
2022/11/22 01:39:04;;;;;;;26.92;8.35;;;;;;;4.37;100.00;98993.63;5105639;28;20032;-68
2022/11/22 01:41:30;;;;;;;27.58;8.20;;;;;;;4.31;100.00;98993.59;5106529;28;20106;-67
2022/11/22 01:43:55;;;;;;;25.92;8.02;;;;;;;4.32;100.00;98992.75;5104667;28;20028;-68
2022/11/22 01:46:37;;;;;;;27.05;8.18;;;;;;;4.33;100.00;98994.50;5107347;28;20023;-67
2022/11/22 01:49:10;;;;;;;28.73;7.80;;;;;;;4.35;100.00;99016.28;5101514;28;20360;-67
2022/11/22 01:51:39;;;;;;;28.42;7.53;;;;;;;4.38;100.00;99011.03;5105459;28;20482;-67
2022/11/22 01:54:11;;;;;;;27.52;7.50;;;;;;;4.35;100.00;99013.66;5105589;28;20035;-68
2022/11/22 01:56:39;;;;;;;24.20;7.13;;;;;;;4.35;100.00;99013.66;5105535;28;20088;-67
2022/11/22 01:59:09;;;;;;;25.90;6.85;;;;;;;4.35;100.00;99019.78;5104915;28;20071;-67
2022/11/22 02:01:35;;;;;;;26.95;6.75;;;;;;;4.43;100.00;99004.09;5105495;28;20110;-67
2022/11/22 02:04:02;;;;;;;28.50;6.82;;;;;;;4.39;100.00;99004.09;5104524;28;20450;-67
2022/11/22 02:06:41;;;;;;;27.40;6.68;;;;;;;4.37;100.00;99017.19;5105176;28;20032;-76
2022/11/22 02:09:13;;;;;;;25.00;6.07;;;;;;;4.39;100.00;99014.56;5105174;28;20173;-71
2022/11/22 02:11:46;;;;;;;29.13;6.78;;;;;;;4.36;100.00;99018.03;5103918;28;20394;-72
2022/11/22 02:14:15;;;;;;;25.67;6.28;;;;;;;4.34;100.00;99025.03;5106119;28;20043;-73
2022/11/22 02:16:42;;;;;;;26.73;6.35;;;;;;;4.34;100.00;99025.03;5104617;28;20424;-72
2022/11/22 02:19:25;;;;;;;23.98;5.72;;;;;;;4.44;100.00;99018.03;5105231;28;20048;-71
2022/11/22 02:21:57;;;;;;;25.23;5.60;;;;;;;4.38;100.00;99031.13;5099525;28;20032;-74
2022/11/22 02:24:29;;;;;;;24.07;5.83;;;;;;;4.34;100.00;99028.50;5099580;28;20052;-69
2022/11/22 02:26:54;;;;;;;26.33;5.53;;;;;;;4.34;100.00;99025.03;5100229;28;20364;-78
2022/11/22 02:29:20;;;;;;;26.80;5.28;;;;;;;4.32;100.00;99026.75;5106459;28;20076;-71
2022/11/22 02:31:46;;;;;;;25.95;5.55;;;;;;;4.31;100.00;99035.47;5102511;28;20036;-75
2022/11/22 02:34:12;;;;;;;25.70;5.22;;;;;;;4.29;100.00;99034.59;5105588;28;20048;-71
2022/11/22 02:36:46;;;;;;;26.00;5.60;;;;;;;4.31;100.00;99041.59;5104703;28;20036;-77
2022/11/22 02:39:14;;;;;;;25.58;5.05;;;;;;;4.28;100.00;99040.69;5105495;28;20035;-73
2022/11/22 02:41:40;;;;;;;29.00;5.63;;;;;;;4.24;100.00;99029.38;5104199;28;20024;-74
2022/11/22 02:44:08;;;;;;;25.88;4.90;;;;;;;4.24;100.00;99025.84;5104445;28;20444;-74
2022/11/22 02:46:33;;;;;;;25.48;5.45;;;;;;;4.23;100.00;99031.97;5105067;28;20038;-75
2022/11/22 02:48:58;;;;;;;26.98;5.25;;;;;;;4.22;100.00;99032.84;5103517;28;20036;-78
2022/11/22 02:51:25;;;;;;;26.13;5.15;;;;;;;4.24;100.00;99031.97;5106134;28;20432;-73
2022/11/22 02:53:52;;;;;;;27.42;5.35;;;;;;;4.14;100.00;99033.72;5098805;28;20417;-67
2022/11/22 02:56:18;;;;;;;26.60;5.20;;;;;;;4.17;100.00;99046.78;5105927;28;20047;-68
2022/11/22 02:58:44;;;;;;;25.95;5.00;;;;;;;4.16;100.00;99052.00;5103214;28;20052;-67
2022/11/22 03:01:10;;;;;;;26.15;5.50;;;;;;;4.07;100.00;99034.56;5104543;28;20475;-67
2022/11/22 03:03:36;;;;;;;25.08;5.00;;;;;;;4.06;100.00;99034.56;5104299;28;20165;-68
2022/11/22 03:06:01;;;;;;;26.25;5.32;;;;;;;4.00;100.00;99032.81;5103312;28;20107;-68
2022/11/22 03:08:27;;;;;;;27.50;5.00;;;;;;;4.00;100.00;99045.88;5105429;28;20467;-69
2022/11/22 03:10:52;;;;;;;27.80;5.30;;;;;;;3.98;100.00;99034.56;5102226;28;20035;-68
2022/11/22 03:13:17;;;;;;;24.00;4.72;;;;;;;3.92;100.00;99045.88;5102679;28;20021;-68
2022/11/22 03:15:46;;;;;;;22.55;4.80;;;;;;;3.84;100.00;99045.84;5104634;28;20032;-67
2022/11/22 03:18:11;;;;;;;25.35;4.90;;;;;;;3.85;100.00;99054.56;5103372;28;20456;-68
2022/11/22 03:20:36;;;;;;;22.13;4.93;;;;;;;3.80;100.00;99058.88;5103865;28;20548;-68
2022/11/22 03:23:02;;;;;;;24.98;5.10;;;;;;;3.78;100.00;99055.41;5104743;28;20024;-68
2022/11/22 03:25:27;;;;;;;23.67;4.95;;;;;;;3.77;100.00;99061.50;5102439;28;20020;-68
2022/11/22 03:27:53;;;;;;;25.48;5.15;;;;;;;3.77;100.00;99064.09;5105410;28;20032;-68
2022/11/22 03:30:19;;;;;;;26.92;5.32;;;;;;;3.73;100.00;99057.13;5102084;28;20474;-67
2022/11/22 03:32:44;;;;;;;24.35;4.85;;;;;;;3.67;100.00;99064.09;5104849;28;20122;-68
2022/11/22 03:35:10;;;;;;;25.65;5.10;;;;;;;3.60;100.00;99066.69;5103128;28;20103;-68
2022/11/22 03:37:35;;;;;;;25.73;5.43;;;;;;;3.60;100.00;99064.94;5103467;28;20374;-68
2022/11/22 03:40:00;;;;;;;28.17;5.85;;;;;;;3.58;100.00;99063.16;5104264;28;20028;-68
2022/11/22 03:42:26;;;;;;;23.83;4.93;;;;;;;3.60;100.00;99061.44;5100596;28;20107;-69
2022/11/22 03:44:51;;;;;;;25.30;5.00;;;;;;;3.56;100.00;99055.31;5105355;28;20497;-68
2022/11/22 03:47:17;;;;;;;24.77;4.80;;;;;;;3.54;100.00;99062.28;5101910;28;20039;-68
2022/11/22 03:49:42;;;;;;;25.35;4.95;;;;;;;3.52;100.00;99069.22;5103927;28;20032;-68
2022/11/22 03:52:08;;;;;;;29.38;5.43;;;;;;;3.43;100.00;99063.97;5102110;28;20119;-69
2022/11/22 03:54:33;;;;;;;25.52;5.30;;;;;;;3.42;100.00;99065.72;5102633;28;20494;-73
2022/11/22 03:56:58;;;;;;;24.02;4.82;;;;;;;3.41;100.00;99071.81;5104510;28;20390;-76
2022/11/22 03:59:24;;;;;;;26.65;5.32;;;;;;;3.38;100.00;99069.19;5101372;28;20444;-71
2022/11/22 04:01:49;;;;;;;25.58;5.07;;;;;;;3.48;100.00;99070.09;5104863;28;20471;-73
2022/11/22 04:04:15;;;;;;;26.05;5.07;;;;;;;3.42;100.00;99070.94;5102169;28;20088;-73
2022/11/22 04:06:40;;;;;;;24.33;5.15;;;;;;;3.35;100.00;99071.78;5102499;28;20116;-76
2022/11/22 04:09:05;;;;;;;25.77;4.97;;;;;;;3.26;100.00;99056.94;5103232;28;20040;-78
2022/11/22 04:11:31;;;;;;;24.10;4.93;;;;;;;3.21;100.00;99063.00;5102256;28;20039;-72
2022/11/22 04:16:40;;;;;;;27.20;5.05;;;;;;;3.12;100.00;99080.34;5103467;28;20493;-70
2022/11/22 04:19:05;;;;;;;26.23;5.55;;;;;;;3.10;100.00;99087.31;5103401;28;20032;-76
2022/11/22 04:21:33;;;;;;;26.30;5.25;;;;;;;3.07;100.00;99102.06;5102172;28;20020;-74
2022/11/22 04:26:48;;;;;;;24.52;4.95;;;;;;;3.10;100.00;99108.19;5104362;28;20497;-74
2022/11/22 04:29:15;;;;;;;24.90;5.30;;;;;;;3.06;100.00;99108.13;5101809;28;20023;-74
2022/11/22 04:34:24;;;;;;;27.67;5.47;;;;;;;2.96;100.00;99094.16;5098032;28;20035;-75
2022/11/22 04:36:49;;;;;;;26.05;5.38;;;;;;;2.98;100.00;99095.03;5108007;28;20031;-70
2022/11/22 04:39:15;;;;;;;25.65;5.40;;;;;;;2.88;100.00;99094.09;5105755;28;20040;-67
2022/11/22 04:41:40;;;;;;;25.52;5.00;;;;;;;2.85;100.00;99093.22;5106181;28;20031;-68
2022/11/22 04:46:49;;;;;;;26.63;5.25;;;;;;;2.85;100.00;99096.69;5108604;28;20045;-67
2022/11/22 04:49:14;;;;;;;24.35;4.90;;;;;;;2.87;100.00;99094.97;5105923;28;20028;-67
2022/11/22 04:54:24;;;;;;;27.23;5.13;;;;;;;2.86;100.00;99100.19;5101610;28;20506;-68
2022/11/22 04:56:49;;;;;;;26.45;4.90;;;;;;;2.84;100.00;99101.88;5108098;28;20052;-68
2022/11/22 04:59:14;;;;;;;25.27;4.97;;;;;;;2.86;100.00;99105.41;5105629;28;20567;-68
2022/11/22 05:01:39;;;;;;;23.33;4.70;;;;;;;2.91;100.00;99112.41;5106702;28;20028;-67
2022/11/22 05:04:05;;;;;;;25.80;5.10;;;;;;;2.85;100.00;99101.91;5106767;28;20039;-68
2022/11/22 05:06:30;;;;;;;23.67;4.70;;;;;;;2.77;100.00;99108.81;5104179;28;20029;-68
2022/11/22 05:08:56;;;;;;;23.63;4.88;;;;;;;2.70;100.00;99107.88;5108042;28;20028;-70
2022/11/22 05:11:21;;;;;;;25.50;4.90;;;;;;;2.75;100.00;99111.41;5104583;28;20032;-67
2022/11/22 05:13:46;;;;;;;22.80;4.63;;;;;;;2.67;100.00;99113.06;5107572;28;20063;-68
2022/11/22 05:16:13;;;;;;;23.52;4.90;;;;;;;2.63;100.00;99113.03;5105663;27;20027;-68
2022/11/22 05:18:39;;;;;;;23.55;4.63;;;;;;;2.65;100.00;99109.59;5106297;28;20028;-68
2022/11/22 05:21:06;;;;;;;24.88;4.95;;;;;;;2.68;100.00;99104.41;5107139;28;20084;-67
2022/11/22 05:26:16;;;;;;;24.10;4.53;;;;;;;2.66;100.00;99115.66;5105099;28;20405;-67
2022/11/22 05:28:41;;;;;;;23.08;4.50;;;;;;;2.67;100.00;99104.38;5106260;28;20016;-67
2022/11/22 05:31:12;;;;;;;24.27;4.45;;;;;;;2.65;100.00;99109.59;5106397;28;20028;-68
2022/11/22 05:33:40;;;;;;;22.52;5.05;;;;;;;2.63;100.00;99110.44;5105808;28;20467;-67
2022/11/22 05:36:06;;;;;;;24.48;4.97;;;;;;;2.63;100.00;99111.28;5106200;28;20197;-70
2022/11/22 05:38:34;;;;;;;20.25;4.85;;;;;;;2.61;100.00;99105.19;5104988;28;20020;-68
2022/11/22 05:40:59;;;;;;;24.80;5.40;;;;;;;2.65;100.00;99103.47;5105718;28;20035;-67
2022/11/22 05:43:26;;;;;;;24.42;4.82;;;;;;;2.63;100.00;99107.81;5104075;28;20368;-67
2022/11/22 05:45:52;;;;;;;23.63;4.63;;;;;;;2.56;100.00;99105.16;5100069;28;20036;-67
2022/11/22 05:48:17;;;;;;;21.38;4.57;;;;;;;2.58;100.00;99102.56;5105394;28;20084;-68
2022/11/22 05:50:42;;;;;;;21.63;4.72;;;;;;;2.59;100.00;99109.50;5105199;28;20035;-67
2022/11/22 05:53:08;;;;;;;23.92;5.00;;;;;;;2.58;100.00;99110.41;5105816;28;20024;-68
2022/11/22 05:55:33;;;;;;;22.48;4.97;;;;;;;2.54;100.00;99106.88;5106246;28;20474;-67
2022/11/22 05:58:02;;;;;;;23.02;4.88;;;;;;;2.55;100.00;99103.41;5104414;28;20034;-68
2022/11/22 06:00:28;;;;;;;23.23;4.70;;;;;;;2.56;100.00;99096.44;5106795;28;20104;-68
2022/11/22 06:02:59;;;;;;;23.05;4.40;;;;;;;2.48;100.00;99095.53;5103569;28;20054;-67
2022/11/22 06:05:26;;;;;;;21.38;4.30;;;;;;;2.48;100.00;99103.34;5100056;28;20039;-68
2022/11/22 06:07:51;;;;;;;23.23;4.60;;;;;;;2.42;100.00;99094.59;5107074;28;20474;-67
2022/11/22 06:10:16;;;;;;;21.65;4.80;;;;;;;2.37;100.00;99106.69;5102828;28;20030;-67
2022/11/22 06:12:42;;;;;;;23.27;4.70;;;;;;;2.39;100.00;99101.53;5104188;28;20036;-67
2022/11/22 06:15:08;;;;;;;23.35;4.70;;;;;;;2.41;100.00;99107.63;5105560;28;20051;-68
2022/11/22 06:17:33;;;;;;;22.25;5.03;;;;;;;2.38;100.00;99111.06;5103935;28;20044;-67
2022/11/22 06:19:58;;;;;;;22.95;5.25;;;;;;;2.33;100.00;99106.66;5106414;28;20035;-67
2022/11/22 06:22:24;;;;;;;21.92;4.72;;;;;;;2.31;100.00;99106.66;5103366;28;20033;-67
2022/11/22 06:24:49;;;;;;;22.80;4.80;;;;;;;2.33;100.00;99107.56;5106252;28;20039;-67
2022/11/22 06:27:14;;;;;;;22.63;4.90;;;;;;;2.30;100.00;99119.66;5104255;28;20031;-68
2022/11/22 06:29:41;;;;;;;21.90;4.93;;;;;;;2.26;100.00;99121.38;5104773;28;20063;-67
2022/11/22 06:32:07;;;;;;;25.50;5.35;;;;;;;2.21;100.00;99117.84;5105287;28;20027;-67
2022/11/22 06:34:32;;;;;;;21.88;5.03;;;;;;;2.19;100.00;99116.97;5103902;28;20364;-67
2022/11/22 06:36:57;;;;;;;23.65;5.43;;;;;;;2.25;100.00;99119.63;5106360;28;20028;-67
2022/11/22 06:39:22;;;;;;;23.33;5.07;;;;;;;2.21;100.00;99118.75;5102883;28;20111;-67
2022/11/22 06:41:48;;;;;;;21.75;5.30;;;;;;;2.27;100.00;99128.34;5105991;28;20111;-69
2022/11/22 06:44:14;;;;;;;24.33;6.03;;;;;;;2.37;100.00;99127.56;5076236;28;20486;-66
2022/11/22 06:46:39;;;;;;;23.17;5.18;;;;;;;2.48;100.00;99125.09;5095332;28;20028;-66
2022/11/22 06:49:04;;;;;;;22.48;5.43;;;;;;;2.42;100.00;99122.41;5095500;28;20042;-64
2022/11/22 06:51:31;;;;;;;24.90;5.38;;;;;;;2.47;100.00;99125.06;5100185;28;20122;-68
2022/11/22 06:53:57;;;;;;;22.35;5.07;;;;;;;2.50;100.00;99127.69;5097843;28;20036;-66
2022/11/22 06:56:34;;;;;;;22.30;5.03;;;;;;;2.57;100.00;99134.72;5099567;28;20027;-66
2022/11/22 06:59:04;;;;;;;22.20;5.25;;;;;;;2.61;100.00;99139.97;5098019;28;20398;-64
2022/11/22 07:01:31;;;;;;;21.70;5.10;;;;;;;2.68;100.00;99146.16;5100439;28;20036;-66
2022/11/22 07:03:58;;;;;;;22.05;4.90;;;;;;;2.71;100.00;99151.38;5095290;28;20441;-66
2022/11/22 07:06:25;;;;;;;22.60;4.90;;;;;;;2.77;100.00;99156.66;5100933;28;20035;-65
2022/11/22 07:08:51;;;;;;;21.55;5.03;;;;;;;2.87;100.00;99161.94;5101189;28;20035;-64
2022/11/22 07:11:26;;;;;;;23.08;5.15;;;;;;;2.93;100.00;99164.63;5099907;28;20047;-66
2022/11/22 07:13:52;;;;;;;22.23;4.75;;;;;;;2.94;100.00;99163.75;5099383;28;20059;-65
2022/11/22 07:16:19;;;;;;;21.15;4.80;;;;;;;3.04;100.00;99155.13;5098966;28;20435;-67
2022/11/22 07:18:45;;;;;;;21.67;4.80;;;;;;;3.05;100.00;99151.66;5097436;28;20035;-65
2022/11/22 07:21:13;;;;;;;22.17;4.80;;;;;;;3.03;100.00;99161.22;5098847;28;20020;-66
2022/11/22 07:23:43;;;;;;;23.27;5.20;;;;;;;3.09;100.00;99148.22;5099263;28;20032;-64
2022/11/22 07:26:09;;;;;;;22.02;4.88;;;;;;;3.08;100.00;99151.69;5097584;28;20034;-67
2022/11/22 07:28:35;;;;;;;23.83;4.90;;;;;;;3.12;100.00;99153.47;5099283;28;20454;-66
2022/11/22 07:31:02;;;;;;;20.65;4.55;;;;;;;3.14;100.00;99156.94;5096225;28;20123;-66
2022/11/22 07:33:28;;;;;;;21.63;4.82;;;;;;;3.24;100.00;99164.88;5101118;28;20071;-66
2022/11/22 07:35:53;;;;;;;21.25;4.30;;;;;;;3.24;100.00;99155.28;5097004;28;20030;-67
2022/11/22 07:38:18;;;;;;;21.48;4.60;;;;;;;3.26;100.00;99170.97;5095397;28;20038;-66
2022/11/22 07:40:44;;;;;;;21.10;4.57;;;;;;;3.30;100.00;99162.28;5095545;28;20115;-66
2022/11/22 07:43:09;;;;;;;20.30;4.82;;;;;;;3.31;100.00;99164.06;5094266;28;20103;-66
2022/11/22 07:45:34;;;;;;;20.52;4.57;;;;;;;3.32;100.00;99165.81;5096670;28;20117;-65
2022/11/22 07:48:01;;;;;;;19.75;4.30;;;;;;;3.33;100.00;99161.44;5098111;28;20059;-65
2022/11/22 07:50:27;;;;;;;22.08;4.60;;;;;;;3.36;100.00;99166.69;5094188;28;20040;-65
2022/11/22 07:52:59;;;;;;;19.85;4.57;;;;;;;3.40;100.00;99158.88;5098731;28;20478;-67
2022/11/22 07:55:26;;;;;;;20.00;4.35;;;;;;;3.43;100.00;99164.13;5096726;28;20027;-67
2022/11/22 07:57:52;;;;;;;19.08;4.43;;;;;;;3.45;100.00;99172.84;5100035;28;20032;-67
2022/11/22 08:00:19;;;;;;;22.40;4.40;;;;;;;3.47;100.00;99168.50;5094394;28;20040;-67
2022/11/22 08:02:45;;;;;;;18.95;4.47;;;;;;;3.54;100.00;99160.69;5095883;28;20036;-67
2022/11/22 08:05:10;;;;;;;20.33;4.45;;;;;;;3.59;100.00;99159.84;5092749;28;20046;-67
2022/11/22 08:07:35;;;;;;;20.23;4.25;;;;;;;3.64;100.00;99165.09;5097498;28;20035;-67
2022/11/22 08:10:01;;;;;;;19.08;4.38;;;;;;;3.66;100.00;99160.78;5093931;28;20424;-68
2022/11/22 08:12:26;;;;;;;20.77;4.20;;;;;;;3.70;100.00;99156.44;5098186;28;20027;-66
2022/11/22 08:14:52;;;;;;;19.67;4.22;;;;;;;3.74;100.00;99164.31;5097832;28;20020;-66
2022/11/22 08:17:17;;;;;;;18.58;4.25;;;;;;;3.78;100.00;99165.19;5100283;28;20027;-66
2022/11/22 08:19:42;;;;;;;20.17;4.50;;;;;;;3.81;100.00;99170.44;5097944;28;20050;-67
2022/11/22 08:22:08;;;;;;;19.40;4.13;;;;;;;3.84;100.00;99166.13;5102447;28;20107;-67
2022/11/22 08:24:33;;;;;;;19.92;4.20;;;;;;;3.87;100.00;99162.63;5104288;28;20024;-66
2022/11/22 08:26:58;;;;;;;20.63;4.10;;;;;;;3.89;100.00;99165.22;5101237;28;20093;-66
2022/11/22 08:29:24;;;;;;;20.50;4.13;;;;;;;3.88;100.00;99166.97;5103660;28;20024;-66
2022/11/22 08:31:49;;;;;;;21.17;4.30;;;;;;;3.89;100.00;99178.31;5102243;28;20487;-66
2022/11/22 08:34:14;;;;;;;18.98;4.07;;;;;;;3.98;100.00;99178.38;5102849;28;20038;-66
2022/11/22 08:36:40;;;;;;;18.77;3.95;;;;;;;3.98;100.00;99173.13;5103393;28;20024;-67
2022/11/22 08:39:05;;;;;;;20.55;4.00;;;;;;;3.99;100.00;99174.88;5101906;28;20383;-67
2022/11/22 08:41:30;;;;;;;20.17;4.10;;;;;;;4.02;100.00;99180.13;5104783;28;20470;-66
2022/11/22 08:43:56;;;;;;;19.25;3.70;;;;;;;4.06;100.00;99176.63;5101057;28;20390;-66
2022/11/22 08:46:21;;;;;;;20.10;3.85;;;;;;;4.13;100.00;99175.78;5102558;28;20428;-67
2022/11/22 08:48:46;;;;;;;17.60;3.95;;;;;;;4.15;100.00;99176.69;5102412;28;20130;-67
2022/11/22 08:51:13;;;;;;;20.52;4.20;;;;;;;4.22;100.00;99179.31;5102701;28;20048;-66
2022/11/22 08:53:40;;;;;;;19.55;3.90;;;;;;;4.31;100.00;99171.50;5103703;28;20023;-66
2022/11/22 08:56:09;;;;;;;18.35;4.00;;;;;;;4.42;100.00;99184.63;5101346;28;20035;-66
2022/11/22 08:58:35;;;;;;;20.48;4.32;;;;;;;4.48;100.00;99185.50;5104003;28;20036;-67
2022/11/22 09:01:09;;;;;;;19.38;3.83;;;;;;;4.49;100.00;99179.41;5100772;28;20094;-66
2022/11/22 09:03:35;;;;;;;17.90;3.65;;;;;;;4.47;100.00;99189.00;5097899;28;20459;-66
2022/11/22 09:06:03;;;;;;;19.27;4.05;;;;;;;4.48;100.00;99174.16;5104242;28;20054;-67
2022/11/22 09:08:29;;;;;;;19.58;3.60;;;;;;;4.51;100.00;99188.16;5096897;28;20471;-67
2022/11/22 09:10:54;;;;;;;20.05;4.05;;;;;;;4.50;100.00;99189.00;5103735;28;20044;-66
2022/11/22 09:13:19;;;;;;;18.52;3.50;;;;;;;4.53;100.00;99194.25;5101773;28;20028;-67
2022/11/22 09:15:45;;;;;;;18.08;3.70;;;;;;;4.57;100.00;99189.88;5102653;28;20103;-66
2022/11/22 09:18:10;;;;;;;17.73;4.18;;;;;;;4.63;100.00;99196.88;5102969;28;20110;-66
2022/11/22 09:20:36;;;;;;;16.25;3.80;;;;;;;4.64;100.00;99196.88;5101099;28;20020;-67
2022/11/22 09:23:02;;;;;;;17.92;3.65;;;;;;;4.67;100.00;99194.25;5108308;28;20036;-66
2022/11/22 09:25:28;;;;;;;18.23;4.18;;;;;;;4.73;100.00;99196.03;5100240;28;20128;-66
2022/11/22 09:27:53;;;;;;;18.90;3.88;;;;;;;4.81;100.00;99189.06;5107179;28;20051;-67
2022/11/22 09:30:20;;;;;;;18.90;3.72;;;;;;;4.84;100.00;99191.69;5105568;28;20094;-66
2022/11/22 09:32:45;;;;;;;18.80;4.25;;;;;;;4.89;100.00;99196.91;5104720;28;20449;-66
2022/11/22 09:35:11;;;;;;;18.15;3.95;;;;;;;4.94;100.00;99200.44;5106588;28;20103;-67
2022/11/22 09:37:37;;;;;;;16.77;3.75;;;;;;;5.02;100.00;99192.56;5104675;28;20052;-66
2022/11/22 09:40:02;;;;;;;19.83;3.92;;;;;;;5.07;100.00;99196.09;5107521;28;20114;-66
2022/11/22 09:42:47;;;;;;;17.48;4.10;;;;;;;5.18;100.00;99188.22;5096477;28;20024;-64
2022/11/22 09:45:46;;;;;;;17.38;3.80;;;;;;;5.17;100.00;99199.56;5099539;28;20016;-64
2022/11/22 09:48:39;;;;;;;15.45;3.58;;;;;;;5.23;100.00;99200.44;5098515;28;20023;-68
2022/11/22 09:51:22;;;;;;;16.20;3.50;;;;;;;5.22;100.00;99196.06;5099642;28;20031;-68
2022/11/22 09:53:57;;;;;;;16.35;3.60;;;;;;;5.24;100.00;99196.06;5098158;28;20131;-68
2022/11/22 09:56:24;;;;;;;17.40;3.65;;;;;;;5.27;100.00;99192.56;5099502;28;20027;-68
2022/11/22 09:59:28;;;;;;;16.52;3.40;;;;;;;5.35;100.00;99191.69;5100146;28;20024;-68
2022/11/22 10:02:00;;;;;;;;;;;;;;;5.39;100.00;99205.69;5087049;28;20052;-68
2022/11/22 10:04:33;;;;;;;14.60;3.38;;;;;;;5.38;100.00;99206.56;5101740;28;19912;-68
2022/11/22 10:07:02;;;;;;;17.13;3.50;;;;;;;5.32;100.00;99203.94;5099790;28;20103;-69
2022/11/22 10:09:49;;;;;;;15.80;3.40;;;;;;;5.39;100.00;99195.22;5094527;28;20430;-68
2022/11/22 10:12:37;;;;;;;13.80;3.20;;;;;;;5.31;100.00;99207.44;5097284;28;20028;-69
2022/11/22 10:15:31;;;;;;;16.20;3.40;;;;;;;5.22;100.00;99206.53;5093040;28;20024;-78
2022/11/22 10:18:10;;;;;;;15.77;3.10;;;;;;;5.16;100.00;99201.31;5091585;28;20412;-77
2022/11/22 10:20:39;;;;;;;14.73;3.13;;;;;;;5.22;100.00;99196.06;5097008;28;20076;-73
2022/11/22 10:23:17;;;;;;;12.88;3.00;;;;;;;5.21;100.00;99194.34;5094356;28;20161;-71
2022/11/22 10:25:58;;;;;;;16.60;3.25;;;;;;;5.29;100.00;99201.34;5095408;28;20024;-74
2022/11/22 10:29:18;;;;;;;14.63;3.20;;;;;;;5.07;100.00;99194.31;5099297;28;20172;-68
2022/11/22 10:31:57;;;;;;;16.77;3.40;;;;;;;4.97;100.00;99197.81;5096514;28;20491;-73
2022/11/22 10:34:50;;;;;;;18.08;3.50;;;;;;;4.98;100.00;99198.69;5094092;28;20036;-75
2022/11/22 10:37:35;;;;;;;15.65;3.47;;;;;;;5.12;100.00;99177.75;5100641;28;20028;-71
2022/11/22 10:40:22;;;;;;;14.98;3.35;;;;;;;5.22;100.00;99187.34;5095397;28;20028;-72
2022/11/22 10:43:18;;;;;;;13.13;3.30;;;;;;;5.32;100.00;99181.22;5100256;28;20043;-72
2022/11/22 10:46:10;;;;;;;14.82;3.30;;;;;;;5.39;100.00;99188.22;5099563;28;20482;-75
2022/11/22 10:48:46;;;;;;;16.77;3.45;;;;;;;5.48;100.00;99182.09;5099096;28;20035;-75
2022/11/22 10:51:42;;;;;;;11.63;3.15;;;;;;;5.58;100.00;99178.56;5101804;28;20424;-75
2022/11/22 10:54:22;;;;;;;14.93;3.50;;;;;;;5.68;100.00;99173.28;5098096;28;20059;-77
2022/11/22 10:57:00;;;;;;;13.77;3.22;;;;;;;5.71;100.00;99174.16;5100704;28;20462;-76
2022/11/22 10:59:29;;;;;;;15.18;3.50;;;;;;;5.76;100.00;99168.91;5102796;28;20023;-73
2022/11/22 11:02:08;;;;;;;12.35;3.20;;;;;;;5.82;100.00;99170.66;5103978;28;20028;-75
2022/11/22 11:04:37;;;;;;;11.77;2.90;;;;;;;5.85;100.00;99168.88;5103006;28;20032;-72
2022/11/22 11:07:05;;;;;;;14.85;3.22;;;;;;;5.87;100.00;99167.13;5105203;28;20020;-75
2022/11/22 11:09:30;;;;;;;11.02;2.90;;;;;;;5.85;100.00;99165.38;5101972;28;20104;-73
2022/11/22 11:11:57;;;;;;;13.05;3.30;;;;;;;5.84;100.00;99161.91;5104178;28;20020;-73
2022/11/22 11:14:31;;;;;;;11.77;2.88;;;;;;;5.81;100.00;99158.41;5104205;28;20466;-68
2022/11/22 11:16:58;;;;;;;14.35;3.20;;;;;;;5.81;100.00;99147.91;5104671;28;20032;-74
2022/11/22 11:19:28;;;;;;;11.63;2.78;;;;;;;5.80;100.00;99149.69;5104229;28;20110;-77
2022/11/22 11:22:07;;;;;;;13.25;3.03;;;;;;;5.83;100.00;99148.81;5103663;28;20059;-74
2022/11/22 11:24:37;;;;;;;13.43;2.80;;;;;;;5.87;100.00;99151.41;5101184;28;20059;-73
2022/11/22 11:27:03;;;;;;;14.88;2.90;;;;;;;5.85;100.00;99140.03;5105350;28;20112;-73
2022/11/22 11:29:39;;;;;;;12.02;2.70;;;;;;;5.91;100.00;99137.41;5103205;28;20107;-74
2022/11/22 11:32:18;;;;;;;10.25;2.58;;;;;;;5.91;100.00;99133.88;5105009;28;20424;-72
2022/11/22 11:34:54;;;;;;;7.40;2.40;;;;;;;6.00;100.00;99133.00;5098753;28;20021;-75
2022/11/22 11:37:35;;;;;;;8.52;2.60;;;;;;;6.03;100.00;99138.25;5104306;28;20024;-76
2022/11/22 11:40:02;;;;;;;7.95;2.50;;;;;;;6.03;100.00;99133.88;5104525;28;20098;-71
2022/11/22 11:42:33;;;;;;;12.38;2.58;;;;;;;6.02;100.00;99137.38;5103373;28;20173;-73
2022/11/22 11:45:19;;;;;;;8.93;2.30;;;;;;;6.02;100.00;99126.03;5103832;28;20028;-74
2022/11/22 11:47:44;;;;;;;8.55;2.40;;;;;;;6.01;100.00;99119.03;5098549;28;20458;-72